sensor_id;sensor_type;location;lat;lon;timestamp;P1;durP1;ratioP1;P2;durP2;ratioP2
11084;SDS011;5596;46.826;8.650;2023-02-01T00:00:09;2.60;;;2.30;;
11084;SDS011;5596;46.826;8.650;2023-02-01T00:02:38;3.50;;;2.50;;
11084;SDS011;5596;46.826;8.650;2023-02-01T00:05:07;4.47;;;3.00;;
11084;SDS011;5596;46.826;8.650;2023-02-01T00:07:35;4.03;;;2.70;;
11084;SDS011;5596;46.826;8.650;2023-02-01T00:10:03;4.77;;;2.73;;
11084;SDS011;5596;46.826;8.650;2023-02-01T00:12:32;3.97;;;2.77;;
11084;SDS011;5596;46.826;8.650;2023-02-01T00:15:00;3.20;;;2.40;;
11084;SDS011;5596;46.826;8.650;2023-02-01T00:17:27;2.60;;;1.97;;
11084;SDS011;5596;46.826;8.650;2023-02-01T00:19:54;3.13;;;2.00;;
11084;SDS011;5596;46.826;8.650;2023-02-01T00:22:22;2.17;;;1.80;;
11084;SDS011;5596;46.826;8.650;2023-02-01T00:24:49;3.40;;;2.20;;
11084;SDS011;5596;46.826;8.650;2023-02-01T00:27:16;3.07;;;2.10;;
11084;SDS011;5596;46.826;8.650;2023-02-01T00:29:46;3.93;;;2.63;;
11084;SDS011;5596;46.826;8.650;2023-02-01T00:32:13;2.50;;;1.93;;
11084;SDS011;5596;46.826;8.650;2023-02-01T00:34:40;2.97;;;1.73;;
11084;SDS011;5596;46.826;8.650;2023-02-01T00:37:08;2.70;;;1.90;;
11084;SDS011;5596;46.826;8.650;2023-02-01T00:39:36;3.40;;;2.10;;
11084;SDS011;5596;46.826;8.650;2023-02-01T00:42:03;2.33;;;2.10;;
11084;SDS011;5596;46.826;8.650;2023-02-01T00:44:30;3.20;;;1.90;;
11084;SDS011;5596;46.826;8.650;2023-02-01T00:46:59;2.63;;;1.90;;
11084;SDS011;5596;46.826;8.650;2023-02-01T00:49:26;3.20;;;2.30;;
11084;SDS011;5596;46.826;8.650;2023-02-01T00:51:54;2.80;;;2.07;;
11084;SDS011;5596;46.826;8.650;2023-02-01T00:54:21;3.47;;;2.10;;
11084;SDS011;5596;46.826;8.650;2023-02-01T00:56:49;4.97;;;2.20;;
11084;SDS011;5596;46.826;8.650;2023-02-01T00:59:17;3.20;;;2.40;;
11084;SDS011;5596;46.826;8.650;2023-02-01T01:01:44;3.13;;;1.93;;
11084;SDS011;5596;46.826;8.650;2023-02-01T01:04:12;2.93;;;1.90;;
11084;SDS011;5596;46.826;8.650;2023-02-01T01:06:39;2.60;;;1.90;;
11084;SDS011;5596;46.826;8.650;2023-02-01T01:09:07;2.33;;;1.80;;
11084;SDS011;5596;46.826;8.650;2023-02-01T01:11:35;2.20;;;1.90;;
11084;SDS011;5596;46.826;8.650;2023-02-01T01:14:09;3.73;;;1.97;;
11084;SDS011;5596;46.826;8.650;2023-02-01T01:16:37;2.30;;;1.73;;
11084;SDS011;5596;46.826;8.650;2023-02-01T01:19:04;3.70;;;1.90;;
11084;SDS011;5596;46.826;8.650;2023-02-01T01:21:34;2.50;;;1.90;;
11084;SDS011;5596;46.826;8.650;2023-02-01T01:24:01;3.13;;;1.80;;
11084;SDS011;5596;46.826;8.650;2023-02-01T01:26:28;2.63;;;1.87;;
11084;SDS011;5596;46.826;8.650;2023-02-01T01:28:56;2.53;;;2.10;;
11084;SDS011;5596;46.826;8.650;2023-02-01T01:31:25;2.83;;;1.90;;
11084;SDS011;5596;46.826;8.650;2023-02-01T01:33:54;2.83;;;1.90;;
11084;SDS011;5596;46.826;8.650;2023-02-01T01:36:23;3.27;;;2.10;;
11084;SDS011;5596;46.826;8.650;2023-02-01T01:38:50;2.77;;;1.90;;
11084;SDS011;5596;46.826;8.650;2023-02-01T01:41:19;2.20;;;1.63;;
11084;SDS011;5596;46.826;8.650;2023-02-01T01:43:49;3.27;;;1.80;;
11084;SDS011;5596;46.826;8.650;2023-02-01T01:46:20;3.40;;;1.83;;
11084;SDS011;5596;46.826;8.650;2023-02-01T01:48:51;3.57;;;1.80;;
11084;SDS011;5596;46.826;8.650;2023-02-01T01:51:28;2.73;;;1.60;;
11084;SDS011;5596;46.826;8.650;2023-02-01T01:53:59;6.23;;;1.90;;
11084;SDS011;5596;46.826;8.650;2023-02-01T01:56:29;2.77;;;1.90;;
11084;SDS011;5596;46.826;8.650;2023-02-01T01:58:58;2.00;;;1.57;;
11084;SDS011;5596;46.826;8.650;2023-02-01T02:01:26;1.60;;;1.30;;
11084;SDS011;5596;46.826;8.650;2023-02-01T02:03:55;1.67;;;1.50;;
11084;SDS011;5596;46.826;8.650;2023-02-01T02:09:10;4.47;;;1.60;;
11084;SDS011;5596;46.826;8.650;2023-02-01T02:11:38;2.23;;;1.50;;
11084;SDS011;5596;46.826;8.650;2023-02-01T02:14:06;1.60;;;1.50;;
11084;SDS011;5596;46.826;8.650;2023-02-01T02:16:40;3.23;;;1.47;;
11084;SDS011;5596;46.826;8.650;2023-02-01T02:25:46;1.40;;;1.30;;
11084;SDS011;5596;46.826;8.650;2023-02-01T02:28:55;2.70;;;1.60;;
11084;SDS011;5596;46.826;8.650;2023-02-01T02:31:49;1.40;;;1.30;;
11084;SDS011;5596;46.826;8.650;2023-02-01T02:34:33;2.30;;;1.70;;
11084;SDS011;5596;46.826;8.650;2023-02-01T02:37:09;5.43;;;1.70;;
11084;SDS011;5596;46.826;8.650;2023-02-01T02:39:46;1.40;;;1.30;;
11084;SDS011;5596;46.826;8.650;2023-02-01T02:42:22;3.17;;;1.30;;
11084;SDS011;5596;46.826;8.650;2023-02-01T02:45:15;2.73;;;1.40;;
11084;SDS011;5596;46.826;8.650;2023-02-01T02:48:08;1.83;;;1.30;;
11084;SDS011;5596;46.826;8.650;2023-02-01T02:50:42;1.40;;;1.30;;
11084;SDS011;5596;46.826;8.650;2023-02-01T02:53:32;1.57;;;1.33;;
11084;SDS011;5596;46.826;8.650;2023-02-01T02:56:20;2.03;;;1.30;;
11084;SDS011;5596;46.826;8.650;2023-02-01T02:59:07;2.30;;;1.20;;
11084;SDS011;5596;46.826;8.650;2023-02-01T03:01:54;3.40;;;1.10;;
11084;SDS011;5596;46.826;8.650;2023-02-01T03:04:38;2.97;;;1.47;;
11084;SDS011;5596;46.826;8.650;2023-02-01T03:07:14;2.13;;;1.50;;
11084;SDS011;5596;46.826;8.650;2023-02-01T03:10:02;2.60;;;1.40;;
11084;SDS011;5596;46.826;8.650;2023-02-01T03:12:34;2.07;;;1.40;;
11084;SDS011;5596;46.826;8.650;2023-02-01T03:15:22;1.73;;;1.50;;
11084;SDS011;5596;46.826;8.650;2023-02-01T03:17:56;6.87;;;2.00;;
11084;SDS011;5596;46.826;8.650;2023-02-01T03:20:28;2.87;;;1.80;;
11084;SDS011;5596;46.826;8.650;2023-02-01T03:22:58;3.20;;;2.13;;
11084;SDS011;5596;46.826;8.650;2023-02-01T03:25:29;2.10;;;1.60;;
11084;SDS011;5596;46.826;8.650;2023-02-01T03:27:59;2.37;;;1.60;;
11084;SDS011;5596;46.826;8.650;2023-02-01T03:30:32;2.20;;;1.40;;
11084;SDS011;5596;46.826;8.650;2023-02-01T03:33:04;4.13;;;2.80;;
11084;SDS011;5596;46.826;8.650;2023-02-01T03:35:40;2.43;;;1.93;;
11084;SDS011;5596;46.826;8.650;2023-02-01T03:38:18;2.87;;;1.90;;
11084;SDS011;5596;46.826;8.650;2023-02-01T03:40:50;3.53;;;1.77;;
11084;SDS011;5596;46.826;8.650;2023-02-01T03:43:21;2.00;;;1.70;;
11084;SDS011;5596;46.826;8.650;2023-02-01T03:45:50;1.60;;;1.50;;
11084;SDS011;5596;46.826;8.650;2023-02-01T03:48:24;2.40;;;1.70;;
11084;SDS011;5596;46.826;8.650;2023-02-01T03:50:55;2.03;;;1.70;;
11084;SDS011;5596;46.826;8.650;2023-02-01T03:53:28;2.83;;;1.90;;
11084;SDS011;5596;46.826;8.650;2023-02-01T03:55:55;1.87;;;1.67;;
11084;SDS011;5596;46.826;8.650;2023-02-01T03:58:24;2.27;;;1.73;;
11084;SDS011;5596;46.826;8.650;2023-02-01T04:00:52;3.37;;;2.17;;
11084;SDS011;5596;46.826;8.650;2023-02-01T04:03:22;1.60;;;1.50;;
11084;SDS011;5596;46.826;8.650;2023-02-01T04:05:50;2.17;;;1.77;;
11084;SDS011;5596;46.826;8.650;2023-02-01T04:08:22;4.27;;;1.70;;
11084;SDS011;5596;46.826;8.650;2023-02-01T04:10:51;4.87;;;1.70;;
11084;SDS011;5596;46.826;8.650;2023-02-01T04:13:18;2.30;;;1.80;;
11084;SDS011;5596;46.826;8.650;2023-02-01T04:15:46;3.00;;;2.07;;
11084;SDS011;5596;46.826;8.650;2023-02-01T04:18:15;2.63;;;1.77;;
11084;SDS011;5596;46.826;8.650;2023-02-01T04:20:42;2.07;;;1.70;;
11084;SDS011;5596;46.826;8.650;2023-02-01T04:23:10;2.13;;;1.83;;
11084;SDS011;5596;46.826;8.650;2023-02-01T04:25:37;2.93;;;2.13;;
11084;SDS011;5596;46.826;8.650;2023-02-01T04:28:05;2.00;;;1.80;;
11084;SDS011;5596;46.826;8.650;2023-02-01T04:30:33;2.67;;;1.77;;
11084;SDS011;5596;46.826;8.650;2023-02-01T04:33:00;3.60;;;1.97;;
11084;SDS011;5596;46.826;8.650;2023-02-01T04:35:28;2.07;;;1.70;;
11084;SDS011;5596;46.826;8.650;2023-02-01T04:37:56;1.93;;;1.37;;
11084;SDS011;5596;46.826;8.650;2023-02-01T04:40:24;2.27;;;1.60;;
11084;SDS011;5596;46.826;8.650;2023-02-01T04:42:52;1.47;;;1.13;;
11084;SDS011;5596;46.826;8.650;2023-02-01T04:45:20;1.97;;;1.30;;
11084;SDS011;5596;46.826;8.650;2023-02-01T04:47:47;3.50;;;1.73;;
11084;SDS011;5596;46.826;8.650;2023-02-01T04:50:15;1.77;;;1.43;;
11084;SDS011;5596;46.826;8.650;2023-02-01T04:52:42;2.50;;;1.47;;
11084;SDS011;5596;46.826;8.650;2023-02-01T04:55:10;2.93;;;1.83;;
11084;SDS011;5596;46.826;8.650;2023-02-01T04:57:38;2.33;;;1.80;;
11084;SDS011;5596;46.826;8.650;2023-02-01T05:00:07;1.50;;;1.27;;
11084;SDS011;5596;46.826;8.650;2023-02-01T05:02:37;1.93;;;1.40;;
11084;SDS011;5596;46.826;8.650;2023-02-01T05:05:04;2.43;;;1.40;;
11084;SDS011;5596;46.826;8.650;2023-02-01T05:07:32;4.07;;;1.70;;
11084;SDS011;5596;46.826;8.650;2023-02-01T05:09:59;1.83;;;1.67;;
11084;SDS011;5596;46.826;8.650;2023-02-01T05:12:29;4.83;;;1.70;;
11084;SDS011;5596;46.826;8.650;2023-02-01T05:15:16;5.70;;;3.10;;
11084;SDS011;5596;46.826;8.650;2023-02-01T05:17:44;2.03;;;1.70;;
11084;SDS011;5596;46.826;8.650;2023-02-01T05:20:11;3.37;;;1.90;;
11084;SDS011;5596;46.826;8.650;2023-02-01T05:22:38;3.83;;;2.37;;
11084;SDS011;5596;46.826;8.650;2023-02-01T05:25:05;2.80;;;2.03;;
11084;SDS011;5596;46.826;8.650;2023-02-01T05:27:33;3.00;;;2.20;;
11084;SDS011;5596;46.826;8.650;2023-02-01T05:30:00;2.23;;;1.87;;
11084;SDS011;5596;46.826;8.650;2023-02-01T05:32:27;2.90;;;2.30;;
11084;SDS011;5596;46.826;8.650;2023-02-01T05:34:55;3.43;;;2.57;;
11084;SDS011;5596;46.826;8.650;2023-02-01T05:37:22;4.97;;;2.77;;
11084;SDS011;5596;46.826;8.650;2023-02-01T05:39:49;3.40;;;2.80;;
11084;SDS011;5596;46.826;8.650;2023-02-01T05:42:16;3.53;;;2.53;;
11084;SDS011;5596;46.826;8.650;2023-02-01T05:44:43;6.03;;;3.70;;
11084;SDS011;5596;46.826;8.650;2023-02-01T05:47:10;4.67;;;3.03;;
11084;SDS011;5596;46.826;8.650;2023-02-01T05:49:38;7.10;;;2.70;;
11084;SDS011;5596;46.826;8.650;2023-02-01T05:52:06;3.50;;;2.40;;
11084;SDS011;5596;46.826;8.650;2023-02-01T05:54:33;3.17;;;2.27;;
11084;SDS011;5596;46.826;8.650;2023-02-01T05:57:00;6.67;;;3.40;;
11084;SDS011;5596;46.826;8.650;2023-02-01T05:59:28;4.27;;;2.97;;
11084;SDS011;5596;46.826;8.650;2023-02-01T06:01:55;6.00;;;2.57;;
11084;SDS011;5596;46.826;8.650;2023-02-01T06:04:22;5.03;;;2.93;;
11084;SDS011;5596;46.826;8.650;2023-02-01T06:06:49;4.07;;;2.70;;
11084;SDS011;5596;46.826;8.650;2023-02-01T06:09:18;6.37;;;3.60;;
11084;SDS011;5596;46.826;8.650;2023-02-01T06:11:45;5.57;;;3.37;;
11084;SDS011;5596;46.826;8.650;2023-02-01T06:14:12;9.63;;;4.60;;
11084;SDS011;5596;46.826;8.650;2023-02-01T06:16:39;10.77;;;4.73;;
11084;SDS011;5596;46.826;8.650;2023-02-01T06:19:06;7.73;;;4.33;;
11084;SDS011;5596;46.826;8.650;2023-02-01T06:21:34;7.47;;;4.10;;
11084;SDS011;5596;46.826;8.650;2023-02-01T06:24:02;6.00;;;3.77;;
11084;SDS011;5596;46.826;8.650;2023-02-01T06:26:30;4.33;;;3.07;;
11084;SDS011;5596;46.826;8.650;2023-02-01T06:28:58;5.67;;;2.97;;
11084;SDS011;5596;46.826;8.650;2023-02-01T06:31:25;4.87;;;2.77;;
11084;SDS011;5596;46.826;8.650;2023-02-01T06:33:52;3.47;;;2.83;;
11084;SDS011;5596;46.826;8.650;2023-02-01T06:36:19;3.50;;;2.40;;
11084;SDS011;5596;46.826;8.650;2023-02-01T06:38:47;3.73;;;2.60;;
11084;SDS011;5596;46.826;8.650;2023-02-01T06:41:14;3.13;;;2.50;;
11084;SDS011;5596;46.826;8.650;2023-02-01T06:43:43;4.47;;;2.70;;
11084;SDS011;5596;46.826;8.650;2023-02-01T06:46:11;5.97;;;2.83;;
11084;SDS011;5596;46.826;8.650;2023-02-01T06:48:39;4.10;;;2.57;;
11084;SDS011;5596;46.826;8.650;2023-02-01T06:51:15;2.70;;;2.00;;
11084;SDS011;5596;46.826;8.650;2023-02-01T06:53:46;3.07;;;2.00;;
11084;SDS011;5596;46.826;8.650;2023-02-01T06:56:13;4.60;;;3.10;;
11084;SDS011;5596;46.826;8.650;2023-02-01T06:58:39;4.47;;;2.93;;
11084;SDS011;5596;46.826;8.650;2023-02-01T07:01:08;3.00;;;2.47;;
11084;SDS011;5596;46.826;8.650;2023-02-01T07:03:36;4.77;;;2.20;;
11084;SDS011;5596;46.826;8.650;2023-02-01T07:06:03;2.63;;;2.00;;
11084;SDS011;5596;46.826;8.650;2023-02-01T07:08:32;3.03;;;2.10;;
11084;SDS011;5596;46.826;8.650;2023-02-01T07:11:01;3.97;;;3.10;;
11084;SDS011;5596;46.826;8.650;2023-02-01T07:13:30;3.97;;;2.57;;
11084;SDS011;5596;46.826;8.650;2023-02-01T07:15:58;3.33;;;2.37;;
11084;SDS011;5596;46.826;8.650;2023-02-01T07:18:27;2.63;;;2.37;;
11084;SDS011;5596;46.826;8.650;2023-02-01T07:20:55;3.70;;;2.60;;
11084;SDS011;5596;46.826;8.650;2023-02-01T07:23:23;2.97;;;2.20;;
11084;SDS011;5596;46.826;8.650;2023-02-01T07:25:52;3.87;;;2.73;;
11084;SDS011;5596;46.826;8.650;2023-02-01T07:28:20;4.27;;;3.50;;
11084;SDS011;5596;46.826;8.650;2023-02-01T07:30:47;5.00;;;3.70;;
11084;SDS011;5596;46.826;8.650;2023-02-01T07:33:18;5.17;;;3.40;;
11084;SDS011;5596;46.826;8.650;2023-02-01T07:35:47;5.23;;;3.30;;
11084;SDS011;5596;46.826;8.650;2023-02-01T07:38:15;3.97;;;2.90;;
11084;SDS011;5596;46.826;8.650;2023-02-01T07:40:43;4.83;;;2.80;;
11084;SDS011;5596;46.826;8.650;2023-02-01T07:43:10;4.53;;;3.37;;
11084;SDS011;5596;46.826;8.650;2023-02-01T07:45:37;6.80;;;4.63;;
11084;SDS011;5596;46.826;8.650;2023-02-01T07:48:04;5.73;;;3.77;;
11084;SDS011;5596;46.826;8.650;2023-02-01T07:50:31;4.40;;;2.90;;
11084;SDS011;5596;46.826;8.650;2023-02-01T07:53:00;3.60;;;2.77;;
11084;SDS011;5596;46.826;8.650;2023-02-01T07:55:27;7.93;;;2.90;;
11084;SDS011;5596;46.826;8.650;2023-02-01T07:57:56;3.93;;;2.97;;
11084;SDS011;5596;46.826;8.650;2023-02-01T08:00:25;6.60;;;3.83;;
11084;SDS011;5596;46.826;8.650;2023-02-01T08:03:10;6.77;;;3.33;;
11084;SDS011;5596;46.826;8.650;2023-02-01T08:05:37;3.60;;;2.77;;
11084;SDS011;5596;46.826;8.650;2023-02-01T08:08:06;4.50;;;3.07;;
11084;SDS011;5596;46.826;8.650;2023-02-01T08:10:33;5.67;;;2.80;;
11084;SDS011;5596;46.826;8.650;2023-02-01T08:13:01;4.03;;;2.47;;
11084;SDS011;5596;46.826;8.650;2023-02-01T08:15:29;3.20;;;2.27;;
11084;SDS011;5596;46.826;8.650;2023-02-01T08:17:56;4.93;;;2.50;;
11084;SDS011;5596;46.826;8.650;2023-02-01T08:20:23;6.33;;;2.77;;
11084;SDS011;5596;46.826;8.650;2023-02-01T08:22:52;3.67;;;2.60;;
11084;SDS011;5596;46.826;8.650;2023-02-01T08:25:21;6.60;;;3.30;;
11084;SDS011;5596;46.826;8.650;2023-02-01T08:27:49;5.30;;;3.33;;
11084;SDS011;5596;46.826;8.650;2023-02-01T08:30:16;6.80;;;3.80;;
11084;SDS011;5596;46.826;8.650;2023-02-01T08:32:43;6.17;;;4.80;;
11084;SDS011;5596;46.826;8.650;2023-02-01T08:35:10;5.60;;;4.27;;
11084;SDS011;5596;46.826;8.650;2023-02-01T08:37:38;4.57;;;3.57;;
11084;SDS011;5596;46.826;8.650;2023-02-01T08:40:05;4.67;;;3.87;;
11084;SDS011;5596;46.826;8.650;2023-02-01T08:42:35;3.53;;;2.93;;
11084;SDS011;5596;46.826;8.650;2023-02-01T08:45:18;4.90;;;3.10;;
11084;SDS011;5596;46.826;8.650;2023-02-01T08:47:46;5.97;;;3.60;;
11084;SDS011;5596;46.826;8.650;2023-02-01T08:50:13;7.10;;;2.80;;
11084;SDS011;5596;46.826;8.650;2023-02-01T08:52:41;3.80;;;2.80;;
11084;SDS011;5596;46.826;8.650;2023-02-01T08:55:08;4.30;;;2.87;;
11084;SDS011;5596;46.826;8.650;2023-02-01T08:57:37;4.40;;;2.90;;
11084;SDS011;5596;46.826;8.650;2023-02-01T09:00:06;6.97;;;4.93;;
11084;SDS011;5596;46.826;8.650;2023-02-01T09:02:35;4.90;;;3.00;;
11084;SDS011;5596;46.826;8.650;2023-02-01T09:05:02;5.33;;;3.10;;
11084;SDS011;5596;46.826;8.650;2023-02-01T09:07:32;6.57;;;3.77;;
11084;SDS011;5596;46.826;8.650;2023-02-01T09:09:59;4.70;;;3.30;;
11084;SDS011;5596;46.826;8.650;2023-02-01T09:12:27;5.10;;;3.37;;
11084;SDS011;5596;46.826;8.650;2023-02-01T09:14:56;5.07;;;2.77;;
11084;SDS011;5596;46.826;8.650;2023-02-01T09:17:24;3.67;;;2.70;;
11084;SDS011;5596;46.826;8.650;2023-02-01T09:19:51;3.17;;;2.40;;
11084;SDS011;5596;46.826;8.650;2023-02-01T09:22:22;3.30;;;2.40;;
11084;SDS011;5596;46.826;8.650;2023-02-01T09:24:49;3.37;;;2.60;;
11084;SDS011;5596;46.826;8.650;2023-02-01T09:27:16;6.27;;;3.30;;
11084;SDS011;5596;46.826;8.650;2023-02-01T09:29:43;5.73;;;3.67;;
11084;SDS011;5596;46.826;8.650;2023-02-01T09:32:11;4.83;;;3.67;;
11084;SDS011;5596;46.826;8.650;2023-02-01T09:34:38;5.60;;;3.67;;
11084;SDS011;5596;46.826;8.650;2023-02-01T09:37:06;6.40;;;4.03;;
11084;SDS011;5596;46.826;8.650;2023-02-01T09:39:33;5.83;;;3.83;;
11084;SDS011;5596;46.826;8.650;2023-02-01T09:42:03;6.33;;;3.27;;
11084;SDS011;5596;46.826;8.650;2023-02-01T09:44:51;5.30;;;3.30;;
11084;SDS011;5596;46.826;8.650;2023-02-01T09:47:30;7.07;;;3.10;;
11084;SDS011;5596;46.826;8.650;2023-02-01T09:49:59;4.07;;;3.40;;
11084;SDS011;5596;46.826;8.650;2023-02-01T09:52:29;5.20;;;3.20;;
11084;SDS011;5596;46.826;8.650;2023-02-01T09:55:03;5.87;;;2.80;;
11084;SDS011;5596;46.826;8.650;2023-02-01T09:57:40;5.23;;;3.10;;
11084;SDS011;5596;46.826;8.650;2023-02-01T10:00:14;6.37;;;3.60;;
11084;SDS011;5596;46.826;8.650;2023-02-01T10:02:46;4.47;;;3.03;;
11084;SDS011;5596;46.826;8.650;2023-02-01T10:05:14;3.70;;;2.63;;
11084;SDS011;5596;46.826;8.650;2023-02-01T10:07:47;5.20;;;2.87;;
11084;SDS011;5596;46.826;8.650;2023-02-01T10:10:26;4.23;;;2.63;;
11084;SDS011;5596;46.826;8.650;2023-02-01T10:13:13;3.47;;;2.50;;
11084;SDS011;5596;46.826;8.650;2023-02-01T10:16:13;7.30;;;2.50;;
11084;SDS011;5596;46.826;8.650;2023-02-01T10:18:51;2.30;;;2.00;;
11084;SDS011;5596;46.826;8.650;2023-02-01T10:21:30;3.63;;;2.53;;
11084;SDS011;5596;46.826;8.650;2023-02-01T10:27:00;6.40;;;4.03;;
11084;SDS011;5596;46.826;8.650;2023-02-01T10:29:33;5.07;;;3.27;;
11084;SDS011;5596;46.826;8.650;2023-02-01T10:32:03;4.90;;;3.10;;
11084;SDS011;5596;46.826;8.650;2023-02-01T10:34:39;5.67;;;2.73;;
11084;SDS011;5596;46.826;8.650;2023-02-01T10:37:13;3.93;;;2.60;;
11084;SDS011;5596;46.826;8.650;2023-02-01T10:39:45;4.30;;;2.90;;
11084;SDS011;5596;46.826;8.650;2023-02-01T10:42:14;5.87;;;3.30;;
11084;SDS011;5596;46.826;8.650;2023-02-01T10:44:42;5.47;;;3.00;;
11084;SDS011;5596;46.826;8.650;2023-02-01T10:47:13;4.77;;;2.97;;
11084;SDS011;5596;46.826;8.650;2023-02-01T10:49:44;3.77;;;2.73;;
11084;SDS011;5596;46.826;8.650;2023-02-01T10:52:19;6.23;;;2.50;;
11084;SDS011;5596;46.826;8.650;2023-02-01T10:54:53;4.60;;;2.57;;
11084;SDS011;5596;46.826;8.650;2023-02-01T10:57:21;3.77;;;2.53;;
11084;SDS011;5596;46.826;8.650;2023-02-01T10:59:51;2.60;;;2.30;;
11084;SDS011;5596;46.826;8.650;2023-02-01T11:02:20;3.77;;;2.03;;
11084;SDS011;5596;46.826;8.650;2023-02-01T11:04:59;4.53;;;2.60;;
11084;SDS011;5596;46.826;8.650;2023-02-01T11:07:28;3.60;;;2.27;;
11084;SDS011;5596;46.826;8.650;2023-02-01T11:09:56;4.47;;;2.27;;
11084;SDS011;5596;46.826;8.650;2023-02-01T11:12:29;4.93;;;2.50;;
11084;SDS011;5596;46.826;8.650;2023-02-01T11:14:58;5.57;;;2.70;;
11084;SDS011;5596;46.826;8.650;2023-02-01T11:17:31;3.13;;;2.03;;
11084;SDS011;5596;46.826;8.650;2023-02-01T11:20:04;6.77;;;3.27;;
11084;SDS011;5596;46.826;8.650;2023-02-01T11:22:33;3.00;;;2.30;;
11084;SDS011;5596;46.826;8.650;2023-02-01T11:25:00;3.83;;;2.43;;
11084;SDS011;5596;46.826;8.650;2023-02-01T11:27:34;3.63;;;2.50;;
11084;SDS011;5596;46.826;8.650;2023-02-01T11:30:01;3.30;;;2.37;;
11084;SDS011;5596;46.826;8.650;2023-02-01T11:32:29;3.23;;;2.27;;
11084;SDS011;5596;46.826;8.650;2023-02-01T11:34:57;5.17;;;3.57;;
11084;SDS011;5596;46.826;8.650;2023-02-01T11:37:30;2.73;;;2.20;;
11084;SDS011;5596;46.826;8.650;2023-02-01T11:40:02;3.40;;;2.40;;
11084;SDS011;5596;46.826;8.650;2023-02-01T11:42:53;5.60;;;2.70;;
11084;SDS011;5596;46.826;8.650;2023-02-01T11:45:24;8.53;;;2.77;;
11084;SDS011;5596;46.826;8.650;2023-02-01T11:47:54;4.50;;;2.67;;
11084;SDS011;5596;46.826;8.650;2023-02-01T11:50:25;5.03;;;3.00;;
11084;SDS011;5596;46.826;8.650;2023-02-01T11:53:07;5.33;;;2.90;;
11084;SDS011;5596;46.826;8.650;2023-02-01T11:58:46;3.33;;;2.60;;
11084;SDS011;5596;46.826;8.650;2023-02-01T12:01:29;7.50;;;3.07;;
11084;SDS011;5596;46.826;8.650;2023-02-01T12:04:11;3.70;;;2.67;;
11084;SDS011;5596;46.826;8.650;2023-02-01T12:06:53;4.27;;;2.77;;
11084;SDS011;5596;46.826;8.650;2023-02-01T12:09:28;6.37;;;3.13;;
11084;SDS011;5596;46.826;8.650;2023-02-01T12:12:11;4.73;;;2.80;;
11084;SDS011;5596;46.826;8.650;2023-02-01T12:14:54;4.23;;;3.13;;
11084;SDS011;5596;46.826;8.650;2023-02-01T12:17:47;3.73;;;2.80;;
11084;SDS011;5596;46.826;8.650;2023-02-01T12:20:28;3.70;;;2.60;;
11084;SDS011;5596;46.826;8.650;2023-02-01T12:23:10;3.70;;;3.03;;
11084;SDS011;5596;46.826;8.650;2023-02-01T12:26:00;3.17;;;2.70;;
11084;SDS011;5596;46.826;8.650;2023-02-01T12:28:42;5.03;;;2.80;;
11084;SDS011;5596;46.826;8.650;2023-02-01T12:31:36;3.07;;;2.33;;
11084;SDS011;5596;46.826;8.650;2023-02-01T12:34:20;3.67;;;2.30;;
11084;SDS011;5596;46.826;8.650;2023-02-01T12:37:09;6.03;;;3.00;;
11084;SDS011;5596;46.826;8.650;2023-02-01T12:39:46;6.57;;;2.80;;
11084;SDS011;5596;46.826;8.650;2023-02-01T12:42:22;3.90;;;2.63;;
11084;SDS011;5596;46.826;8.650;2023-02-01T12:44:53;5.43;;;3.17;;
11084;SDS011;5596;46.826;8.650;2023-02-01T12:47:24;5.80;;;3.13;;
11084;SDS011;5596;46.826;8.650;2023-02-01T12:50:00;3.00;;;2.70;;
11084;SDS011;5596;46.826;8.650;2023-02-01T12:52:37;4.03;;;2.70;;
11084;SDS011;5596;46.826;8.650;2023-02-01T12:55:13;5.73;;;3.03;;
11084;SDS011;5596;46.826;8.650;2023-02-01T12:57:46;4.13;;;3.00;;
11084;SDS011;5596;46.826;8.650;2023-02-01T13:00:20;3.50;;;2.80;;
11084;SDS011;5596;46.826;8.650;2023-02-01T13:02:55;4.33;;;3.00;;
11084;SDS011;5596;46.826;8.650;2023-02-01T13:05:28;3.47;;;2.60;;
11084;SDS011;5596;46.826;8.650;2023-02-01T13:08:00;2.77;;;2.07;;
11084;SDS011;5596;46.826;8.650;2023-02-01T13:10:35;2.67;;;2.37;;
11084;SDS011;5596;46.826;8.650;2023-02-01T13:13:10;6.13;;;3.53;;
11084;SDS011;5596;46.826;8.650;2023-02-01T13:15:45;6.03;;;3.80;;
11084;SDS011;5596;46.826;8.650;2023-02-01T13:18:17;10.07;;;4.27;;
11084;SDS011;5596;46.826;8.650;2023-02-01T13:20:47;4.20;;;2.80;;
11084;SDS011;5596;46.826;8.650;2023-02-01T13:23:22;6.70;;;3.43;;
11084;SDS011;5596;46.826;8.650;2023-02-01T13:25:53;3.93;;;2.73;;
11084;SDS011;5596;46.826;8.650;2023-02-01T13:28:24;4.80;;;2.40;;
11084;SDS011;5596;46.826;8.650;2023-02-01T13:31:14;3.03;;;2.27;;
11084;SDS011;5596;46.826;8.650;2023-02-01T13:34:04;6.13;;;2.43;;
11084;SDS011;5596;46.826;8.650;2023-02-01T13:36:54;4.77;;;2.50;;
11084;SDS011;5596;46.826;8.650;2023-02-01T13:39:39;3.03;;;2.73;;
11084;SDS011;5596;46.826;8.650;2023-02-01T13:42:13;3.00;;;2.27;;
11084;SDS011;5596;46.826;8.650;2023-02-01T13:44:45;3.53;;;2.47;;
11084;SDS011;5596;46.826;8.650;2023-02-01T13:47:23;3.93;;;2.30;;
11084;SDS011;5596;46.826;8.650;2023-02-01T13:49:53;2.30;;;2.10;;
11084;SDS011;5596;46.826;8.650;2023-02-01T13:52:26;4.07;;;2.30;;
11084;SDS011;5596;46.826;8.650;2023-02-01T13:55:15;3.17;;;2.20;;
11084;SDS011;5596;46.826;8.650;2023-02-01T13:57:51;3.20;;;2.43;;
11084;SDS011;5596;46.826;8.650;2023-02-01T14:00:41;4.07;;;2.63;;
11084;SDS011;5596;46.826;8.650;2023-02-01T14:03:16;2.90;;;2.10;;
11084;SDS011;5596;46.826;8.650;2023-02-01T14:06:01;3.30;;;1.97;;
11084;SDS011;5596;46.826;8.650;2023-02-01T14:08:43;4.63;;;2.60;;
11084;SDS011;5596;46.826;8.650;2023-02-01T14:11:39;4.50;;;2.23;;
11084;SDS011;5596;46.826;8.650;2023-02-01T14:23:22;3.03;;;1.87;;
11084;SDS011;5596;46.826;8.650;2023-02-01T14:26:03;2.70;;;2.07;;
11084;SDS011;5596;46.826;8.650;2023-02-01T14:28:35;4.57;;;2.33;;
11084;SDS011;5596;46.826;8.650;2023-02-01T14:31:16;4.80;;;2.37;;
11084;SDS011;5596;46.826;8.650;2023-02-01T14:33:55;3.40;;;2.43;;
11084;SDS011;5596;46.826;8.650;2023-02-01T14:36:24;5.93;;;3.20;;
11084;SDS011;5596;46.826;8.650;2023-02-01T14:38:51;5.13;;;3.03;;
11084;SDS011;5596;46.826;8.650;2023-02-01T14:41:30;3.00;;;2.23;;
11084;SDS011;5596;46.826;8.650;2023-02-01T14:47:08;4.97;;;3.47;;
11084;SDS011;5596;46.826;8.650;2023-02-01T14:49:58;9.37;;;4.70;;
11084;SDS011;5596;46.826;8.650;2023-02-01T14:52:34;5.13;;;3.50;;
11084;SDS011;5596;46.826;8.650;2023-02-01T14:55:04;7.43;;;2.90;;
11084;SDS011;5596;46.826;8.650;2023-02-01T14:57:37;3.33;;;2.43;;
11084;SDS011;5596;46.826;8.650;2023-02-01T15:00:11;4.10;;;2.80;;
11084;SDS011;5596;46.826;8.650;2023-02-01T15:02:44;4.20;;;2.43;;
11084;SDS011;5596;46.826;8.650;2023-02-01T15:05:28;6.33;;;4.00;;
11084;SDS011;5596;46.826;8.650;2023-02-01T15:07:59;7.50;;;4.93;;
11084;SDS011;5596;46.826;8.650;2023-02-01T15:10:38;7.03;;;4.10;;
11084;SDS011;5596;46.826;8.650;2023-02-01T15:13:17;6.77;;;4.43;;
11084;SDS011;5596;46.826;8.650;2023-02-01T15:15:59;5.70;;;3.87;;
11084;SDS011;5596;46.826;8.650;2023-02-01T15:18:26;5.33;;;3.20;;
11084;SDS011;5596;46.826;8.650;2023-02-01T15:20:58;5.70;;;3.53;;
11084;SDS011;5596;46.826;8.650;2023-02-01T15:23:26;5.80;;;3.23;;
11084;SDS011;5596;46.826;8.650;2023-02-01T15:25:54;6.17;;;3.80;;
11084;SDS011;5596;46.826;8.650;2023-02-01T15:28:21;8.17;;;4.03;;
11084;SDS011;5596;46.826;8.650;2023-02-01T15:30:53;5.30;;;3.50;;
11084;SDS011;5596;46.826;8.650;2023-02-01T15:33:22;6.97;;;3.73;;
11084;SDS011;5596;46.826;8.650;2023-02-01T15:35:51;4.10;;;2.87;;
11084;SDS011;5596;46.826;8.650;2023-02-01T15:38:39;4.87;;;3.10;;
11084;SDS011;5596;46.826;8.650;2023-02-01T15:41:08;5.57;;;3.57;;
11084;SDS011;5596;46.826;8.650;2023-02-01T15:43:42;6.87;;;3.63;;
11084;SDS011;5596;46.826;8.650;2023-02-01T15:46:11;7.03;;;3.80;;
11084;SDS011;5596;46.826;8.650;2023-02-01T15:48:45;6.60;;;3.80;;
11084;SDS011;5596;46.826;8.650;2023-02-01T15:51:15;6.43;;;3.87;;
11084;SDS011;5596;46.826;8.650;2023-02-01T15:53:48;7.07;;;3.47;;
11084;SDS011;5596;46.826;8.650;2023-02-01T15:56:23;6.67;;;3.60;;